sensor_id;sensor_type;location;lat;lon;timestamp;temperature;humidity
53802;DHT22;39709;53.334;6.534;2022-11-18T00:00:51;6.90;99.90
53802;DHT22;39709;53.334;6.534;2022-11-18T00:03:17;7.80;99.90
53802;DHT22;39709;53.334;6.534;2022-11-18T00:05:43;7.50;99.90
53802;DHT22;39709;53.334;6.534;2022-11-18T00:08:16;7.90;99.90
53802;DHT22;39709;53.334;6.534;2022-11-18T00:10:42;7.60;99.90
53802;DHT22;39709;53.334;6.534;2022-11-18T00:13:11;7.00;99.90
53802;DHT22;39709;53.334;6.534;2022-11-18T00:16:02;7.60;99.90
53802;DHT22;39709;53.334;6.534;2022-11-18T00:18:29;7.30;99.90
53802;DHT22;39709;53.334;6.534;2022-11-18T00:20:54;7.20;99.90
53802;DHT22;39709;53.334;6.534;2022-11-18T00:23:20;7.70;99.90
53802;DHT22;39709;53.334;6.534;2022-11-18T00:25:46;7.50;99.90
53802;DHT22;39709;53.334;6.534;2022-11-18T00:28:11;7.10;99.90
53802;DHT22;39709;53.334;6.534;2022-11-18T00:30:37;7.20;99.90
53802;DHT22;39709;53.334;6.534;2022-11-18T00:33:02;7.60;99.90
53802;DHT22;39709;53.334;6.534;2022-11-18T00:35:28;7.20;99.90
53802;DHT22;39709;53.334;6.534;2022-11-18T00:37:54;7.60;99.90
53802;DHT22;39709;53.334;6.534;2022-11-18T00:40:19;7.10;99.90
53802;DHT22;39709;53.334;6.534;2022-11-18T00:42:45;7.70;99.90
53802;DHT22;39709;53.334;6.534;2022-11-18T00:45:18;7.40;99.90
53802;DHT22;39709;53.334;6.534;2022-11-18T00:47:44;7.20;99.90
53802;DHT22;39709;53.334;6.534;2022-11-18T00:50:09;7.00;99.90
53802;DHT22;39709;53.334;6.534;2022-11-18T00:52:35;7.30;99.90
53802;DHT22;39709;53.334;6.534;2022-11-18T00:55:01;7.90;99.90
53802;DHT22;39709;53.334;6.534;2022-11-18T00:57:26;7.30;99.90
53802;DHT22;39709;53.334;6.534;2022-11-18T00:59:52;7.00;99.90
53802;DHT22;39709;53.334;6.534;2022-11-18T01:02:18;7.20;99.90
53802;DHT22;39709;53.334;6.534;2022-11-18T01:04:43;7.10;99.90
53802;DHT22;39709;53.334;6.534;2022-11-18T01:07:09;7.50;99.90
53802;DHT22;39709;53.334;6.534;2022-11-18T01:09:34;7.00;99.90
53802;DHT22;39709;53.334;6.534;2022-11-18T01:12:00;7.60;99.90
53802;DHT22;39709;53.334;6.534;2022-11-18T01:14:44;7.30;99.90
53802;DHT22;39709;53.334;6.534;2022-11-18T01:17:10;7.40;99.90
53802;DHT22;39709;53.334;6.534;2022-11-18T01:19:36;7.10;99.90
53802;DHT22;39709;53.334;6.534;2022-11-18T01:22:02;7.80;99.90
53802;DHT22;39709;53.334;6.534;2022-11-18T01:24:31;7.40;99.90
53802;DHT22;39709;53.334;6.534;2022-11-18T01:26:58;7.20;99.90
53802;DHT22;39709;53.334;6.534;2022-11-18T01:29:23;7.20;99.90
53802;DHT22;39709;53.334;6.534;2022-11-18T01:31:49;7.00;99.90
53802;DHT22;39709;53.334;6.534;2022-11-18T01:34:15;7.20;99.90
53802;DHT22;39709;53.334;6.534;2022-11-18T01:36:40;6.90;99.90
53802;DHT22;39709;53.334;6.534;2022-11-18T01:39:06;7.00;99.90
53802;DHT22;39709;53.334;6.534;2022-11-18T01:41:32;7.50;99.90
53802;DHT22;39709;53.334;6.534;2022-11-18T01:46:31;7.60;99.90
53802;DHT22;39709;53.334;6.534;2022-11-18T01:49:09;6.70;99.90
53802;DHT22;39709;53.334;6.534;2022-11-18T01:51:42;7.40;99.90
53802;DHT22;39709;53.334;6.534;2022-11-18T01:54:33;7.40;99.90
53802;DHT22;39709;53.334;6.534;2022-11-18T01:57:04;7.40;99.90
53802;DHT22;39709;53.334;6.534;2022-11-18T01:59:35;6.90;99.90
53802;DHT22;39709;53.334;6.534;2022-11-18T02:02:04;7.00;99.90
53802;DHT22;39709;53.334;6.534;2022-11-18T02:04:33;7.50;99.90
53802;DHT22;39709;53.334;6.534;2022-11-18T02:06:59;7.00;99.90
53802;DHT22;39709;53.334;6.534;2022-11-18T02:09:25;7.10;99.90
53802;DHT22;39709;53.334;6.534;2022-11-18T02:11:51;6.80;99.90
53802;DHT22;39709;53.334;6.534;2022-11-18T02:14:30;6.70;99.90
53802;DHT22;39709;53.334;6.534;2022-11-18T02:22:45;7.40;99.90
53802;DHT22;39709;53.334;6.534;2022-11-18T02:30:52;7.00;99.90
53802;DHT22;39709;53.334;6.534;2022-11-18T02:33:37;7.20;99.90
53802;DHT22;39709;53.334;6.534;2022-11-18T02:36:09;6.60;99.90
53802;DHT22;39709;53.334;6.534;2022-11-18T02:38:45;6.80;99.90
53802;DHT22;39709;53.334;6.534;2022-11-18T02:41:20;7.40;99.90
53802;DHT22;39709;53.334;6.534;2022-11-18T02:43:53;7.40;99.90
53802;DHT22;39709;53.334;6.534;2022-11-18T02:46:28;7.50;99.90
53802;DHT22;39709;53.334;6.534;2022-11-18T02:48:55;7.40;99.90
53802;DHT22;39709;53.334;6.534;2022-11-18T02:51:24;7.30;99.90
53802;DHT22;39709;53.334;6.534;2022-11-18T02:53:54;6.90;99.90
53802;DHT22;39709;53.334;6.534;2022-11-18T02:56:21;6.70;99.90
53802;DHT22;39709;53.334;6.534;2022-11-18T02:58:48;6.10;99.90
53802;DHT22;39709;53.334;6.534;2022-11-18T03:01:24;6.60;99.90
53802;DHT22;39709;53.334;6.534;2022-11-18T03:03:52;6.80;99.90
53802;DHT22;39709;53.334;6.534;2022-11-18T03:06:32;6.60;99.90
53802;DHT22;39709;53.334;6.534;2022-11-18T03:09:08;6.60;99.90
53802;DHT22;39709;53.334;6.534;2022-11-18T03:18:13;7.30;99.90
53802;DHT22;39709;53.334;6.534;2022-11-18T03:20:50;6.90;99.90
53802;DHT22;39709;53.334;6.534;2022-11-18T03:23:33;6.60;99.90
53802;DHT22;39709;53.334;6.534;2022-11-18T03:26:24;7.30;99.90
53802;DHT22;39709;53.334;6.534;2022-11-18T03:28:53;7.10;99.90
53802;DHT22;39709;53.334;6.534;2022-11-18T03:31:37;7.30;99.90
53802;DHT22;39709;53.334;6.534;2022-11-18T03:34:18;6.60;99.90
53802;DHT22;39709;53.334;6.534;2022-11-18T03:36:49;7.20;99.90
53802;DHT22;39709;53.334;6.534;2022-11-18T03:39:17;6.70;99.90
53802;DHT22;39709;53.334;6.534;2022-11-18T03:42:06;6.70;99.90
53802;DHT22;39709;53.334;6.534;2022-11-18T03:44:35;7.10;99.90
53802;DHT22;39709;53.334;6.534;2022-11-18T03:47:09;6.60;99.90
53802;DHT22;39709;53.334;6.534;2022-11-18T03:49:42;7.20;99.90
53802;DHT22;39709;53.334;6.534;2022-11-18T03:52:18;6.70;99.90
53802;DHT22;39709;53.334;6.534;2022-11-18T03:54:47;7.10;99.90
53802;DHT22;39709;53.334;6.534;2022-11-18T04:00:08;7.30;99.90
53802;DHT22;39709;53.334;6.534;2022-11-18T04:02:35;7.20;99.90
53802;DHT22;39709;53.334;6.534;2022-11-18T04:05:02;7.30;99.90
53802;DHT22;39709;53.334;6.534;2022-11-18T04:10:18;7.30;99.90
53802;DHT22;39709;53.334;6.534;2022-11-18T04:12:56;6.80;99.90
53802;DHT22;39709;53.334;6.534;2022-11-18T04:15:24;7.30;99.90
53802;DHT22;39709;53.334;6.534;2022-11-18T04:17:50;6.80;99.90
53802;DHT22;39709;53.334;6.534;2022-11-18T04:20:18;7.00;99.90
53802;DHT22;39709;53.334;6.534;2022-11-18T04:22:44;7.00;99.90
53802;DHT22;39709;53.334;6.534;2022-11-18T04:25:11;7.20;99.90
53802;DHT22;39709;53.334;6.534;2022-11-18T04:27:37;7.60;99.90
53802;DHT22;39709;53.334;6.534;2022-11-18T04:30:04;7.10;99.90
53802;DHT22;39709;53.334;6.534;2022-11-18T04:32:30;7.10;99.90
53802;DHT22;39709;53.334;6.534;2022-11-18T04:34:56;7.20;99.90
53802;DHT22;39709;53.334;6.534;2022-11-18T04:37:21;7.10;99.90
53802;DHT22;39709;53.334;6.534;2022-11-18T04:39:47;7.20;99.90
53802;DHT22;39709;53.334;6.534;2022-11-18T04:42:13;7.20;99.90
53802;DHT22;39709;53.334;6.534;2022-11-18T04:44:38;6.90;99.90
53802;DHT22;39709;53.334;6.534;2022-11-18T04:47:05;6.90;99.90
53802;DHT22;39709;53.334;6.534;2022-11-18T04:49:32;7.50;99.90
53802;DHT22;39709;53.334;6.534;2022-11-18T04:51:59;7.70;99.90
53802;DHT22;39709;53.334;6.534;2022-11-18T04:54:25;7.40;99.90
53802;DHT22;39709;53.334;6.534;2022-11-18T04:56:51;7.10;99.90
53802;DHT22;39709;53.334;6.534;2022-11-18T04:59:20;7.10;99.90
53802;DHT22;39709;53.334;6.534;2022-11-18T05:01:46;7.10;99.90
53802;DHT22;39709;53.334;6.534;2022-11-18T05:04:18;7.40;99.90
53802;DHT22;39709;53.334;6.534;2022-11-18T05:06:44;7.20;99.90
53802;DHT22;39709;53.334;6.534;2022-11-18T05:09:10;6.80;99.90
53802;DHT22;39709;53.334;6.534;2022-11-18T05:11:36;6.60;99.90
53802;DHT22;39709;53.334;6.534;2022-11-18T05:14:20;6.80;99.90
53802;DHT22;39709;53.334;6.534;2022-11-18T05:16:46;6.70;99.90
53802;DHT22;39709;53.334;6.534;2022-11-18T05:19:11;6.80;99.90
53802;DHT22;39709;53.334;6.534;2022-11-18T05:21:37;7.10;99.90
53802;DHT22;39709;53.334;6.534;2022-11-18T05:24:04;6.80;99.90
53802;DHT22;39709;53.334;6.534;2022-11-18T05:26:30;6.70;99.90
53802;DHT22;39709;53.334;6.534;2022-11-18T05:28:56;7.00;99.90
53802;DHT22;39709;53.334;6.534;2022-11-18T05:31:21;6.80;99.90
53802;DHT22;39709;53.334;6.534;2022-11-18T05:33:47;6.50;99.90
53802;DHT22;39709;53.334;6.534;2022-11-18T05:36:15;6.60;99.90
53802;DHT22;39709;53.334;6.534;2022-11-18T05:38:42;7.10;99.90
53802;DHT22;39709;53.334;6.534;2022-11-18T05:41:08;6.80;99.90
53802;DHT22;39709;53.334;6.534;2022-11-18T05:43:35;7.20;99.90
53802;DHT22;39709;53.334;6.534;2022-11-18T05:46:02;7.20;99.90
53802;DHT22;39709;53.334;6.534;2022-11-18T05:48:28;7.40;99.90
53802;DHT22;39709;53.334;6.534;2022-11-18T05:50:54;7.20;99.90
53802;DHT22;39709;53.334;6.534;2022-11-18T05:53:23;7.10;99.90
53802;DHT22;39709;53.334;6.534;2022-11-18T05:55:56;6.80;99.90
53802;DHT22;39709;53.334;6.534;2022-11-18T05:58:23;6.90;99.90
53802;DHT22;39709;53.334;6.534;2022-11-18T06:00:51;6.40;99.90
53802;DHT22;39709;53.334;6.534;2022-11-18T06:03:23;6.60;99.90
53802;DHT22;39709;53.334;6.534;2022-11-18T06:05:53;6.80;99.90
53802;DHT22;39709;53.334;6.534;2022-11-18T06:08:20;6.80;99.90
53802;DHT22;39709;53.334;6.534;2022-11-18T06:10:48;6.90;99.90
53802;DHT22;39709;53.334;6.534;2022-11-18T06:13:21;7.20;99.90
53802;DHT22;39709;53.334;6.534;2022-11-18T06:15:49;7.20;99.90
53802;DHT22;39709;53.334;6.534;2022-11-18T06:18:22;6.90;99.90
53802;DHT22;39709;53.334;6.534;2022-11-18T06:20:50;6.70;99.90
53802;DHT22;39709;53.334;6.534;2022-11-18T06:23:17;6.80;99.90
53802;DHT22;39709;53.334;6.534;2022-11-18T06:25:43;7.10;99.90
53802;DHT22;39709;53.334;6.534;2022-11-18T06:28:11;7.00;99.90
53802;DHT22;39709;53.334;6.534;2022-11-18T06:30:38;7.10;99.90
53802;DHT22;39709;53.334;6.534;2022-11-18T06:33:03;7.40;99.90
53802;DHT22;39709;53.334;6.534;2022-11-18T06:35:29;7.00;99.90
53802;DHT22;39709;53.334;6.534;2022-11-18T06:37:55;7.40;99.90
53802;DHT22;39709;53.334;6.534;2022-11-18T06:40:20;7.50;99.90
53802;DHT22;39709;53.334;6.534;2022-11-18T06:42:46;7.20;99.90
53802;DHT22;39709;53.334;6.534;2022-11-18T06:45:30;6.80;99.90
53802;DHT22;39709;53.334;6.534;2022-11-18T06:47:59;7.30;99.90
53802;DHT22;39709;53.334;6.534;2022-11-18T06:50:26;7.00;99.90
53802;DHT22;39709;53.334;6.534;2022-11-18T06:52:52;7.10;99.90
53802;DHT22;39709;53.334;6.534;2022-11-18T06:55:18;7.00;99.90
53802;DHT22;39709;53.334;6.534;2022-11-18T06:57:43;7.10;99.90
53802;DHT22;39709;53.334;6.534;2022-11-18T07:00:10;6.80;99.90
53802;DHT22;39709;53.334;6.534;2022-11-18T07:02:36;7.20;99.90
53802;DHT22;39709;53.334;6.534;2022-11-18T07:05:02;7.20;99.90
53802;DHT22;39709;53.334;6.534;2022-11-18T07:07:28;6.90;99.90
53802;DHT22;39709;53.334;6.534;2022-11-18T07:09:54;6.90;99.90
53802;DHT22;39709;53.334;6.534;2022-11-18T07:12:19;6.90;99.90
53802;DHT22;39709;53.334;6.534;2022-11-18T07:14:45;7.10;99.90
53802;DHT22;39709;53.334;6.534;2022-11-18T07:17:11;6.80;99.90
53802;DHT22;39709;53.334;6.534;2022-11-18T07:19:38;7.10;99.90
53802;DHT22;39709;53.334;6.534;2022-11-18T07:22:04;7.00;99.90
53802;DHT22;39709;53.334;6.534;2022-11-18T07:24:29;6.70;99.90
53802;DHT22;39709;53.334;6.534;2022-11-18T07:26:55;6.20;99.90
53802;DHT22;39709;53.334;6.534;2022-11-18T07:29:21;6.50;99.90
53802;DHT22;39709;53.334;6.534;2022-11-18T07:31:46;6.10;99.90
53802;DHT22;39709;53.334;6.534;2022-11-18T07:34:12;6.40;99.90
53802;DHT22;39709;53.334;6.534;2022-11-18T07:36:38;6.50;99.90
53802;DHT22;39709;53.334;6.534;2022-11-18T07:39:05;6.90;99.90
53802;DHT22;39709;53.334;6.534;2022-11-18T07:41:32;6.80;99.90
53802;DHT22;39709;53.334;6.534;2022-11-18T07:43:59;6.50;99.90
53802;DHT22;39709;53.334;6.534;2022-11-18T07:46:28;6.60;99.90
53802;DHT22;39709;53.334;6.534;2022-11-18T07:48:56;6.80;99.90
53802;DHT22;39709;53.334;6.534;2022-11-18T07:51:25;7.30;99.90
53802;DHT22;39709;53.334;6.534;2022-11-18T07:53:51;7.20;99.90
53802;DHT22;39709;53.334;6.534;2022-11-18T07:56:17;7.20;99.90
53802;DHT22;39709;53.334;6.534;2022-11-18T07:58:43;7.00;99.90
53802;DHT22;39709;53.334;6.534;2022-11-18T08:03:36;7.40;99.90
53802;DHT22;39709;53.334;6.534;2022-11-18T08:06:04;7.10;99.90
53802;DHT22;39709;53.334;6.534;2022-11-18T08:08:31;7.10;99.90
53802;DHT22;39709;53.334;6.534;2022-11-18T08:10:58;7.10;99.90
53802;DHT22;39709;53.334;6.534;2022-11-18T08:13:25;7.10;99.90
53802;DHT22;39709;53.334;6.534;2022-11-18T08:15:52;7.00;99.90
53802;DHT22;39709;53.334;6.534;2022-11-18T08:18:18;7.20;99.90
53802;DHT22;39709;53.334;6.534;2022-11-18T08:20:44;7.30;99.90
53802;DHT22;39709;53.334;6.534;2022-11-18T08:23:13;6.90;99.90
53802;DHT22;39709;53.334;6.534;2022-11-18T08:25:40;6.90;99.90
53802;DHT22;39709;53.334;6.534;2022-11-18T08:28:07;7.10;99.90
53802;DHT22;39709;53.334;6.534;2022-11-18T08:30:33;6.60;99.90
53802;DHT22;39709;53.334;6.534;2022-11-18T08:33:00;7.00;99.90
53802;DHT22;39709;53.334;6.534;2022-11-18T08:35:27;7.00;99.90
53802;DHT22;39709;53.334;6.534;2022-11-18T08:37:52;6.90;99.90
53802;DHT22;39709;53.334;6.534;2022-11-18T08:40:18;7.20;99.90
53802;DHT22;39709;53.334;6.534;2022-11-18T08:42:44;7.00;99.90
53802;DHT22;39709;53.334;6.534;2022-11-18T08:45:10;6.80;99.90
53802;DHT22;39709;53.334;6.534;2022-11-18T08:47:36;6.80;99.90
53802;DHT22;39709;53.334;6.534;2022-11-18T08:50:04;6.70;99.90
53802;DHT22;39709;53.334;6.534;2022-11-18T08:52:30;6.70;99.90
53802;DHT22;39709;53.334;6.534;2022-11-18T08:54:55;6.60;99.90
53802;DHT22;39709;53.334;6.534;2022-11-18T08:57:22;7.20;99.90
53802;DHT22;39709;53.334;6.534;2022-11-18T08:59:47;7.20;99.90
53802;DHT22;39709;53.334;6.534;2022-11-18T09:02:19;7.30;99.90
53802;DHT22;39709;53.334;6.534;2022-11-18T09:04:47;7.50;99.90
53802;DHT22;39709;53.334;6.534;2022-11-18T09:07:12;7.00;99.90
53802;DHT22;39709;53.334;6.534;2022-11-18T09:09:38;7.00;99.90
53802;DHT22;39709;53.334;6.534;2022-11-18T09:12:04;7.00;99.90
53802;DHT22;39709;53.334;6.534;2022-11-18T09:14:30;7.20;99.90
53802;DHT22;39709;53.334;6.534;2022-11-18T09:16:56;7.30;99.90
53802;DHT22;39709;53.334;6.534;2022-11-18T09:19:22;7.50;99.90
53802;DHT22;39709;53.334;6.534;2022-11-18T09:21:47;7.40;99.90
53802;DHT22;39709;53.334;6.534;2022-11-18T09:24:13;7.50;99.90
53802;DHT22;39709;53.334;6.534;2022-11-18T09:26:39;7.30;99.90
53802;DHT22;39709;53.334;6.534;2022-11-18T09:29:05;7.50;99.90
53802;DHT22;39709;53.334;6.534;2022-11-18T09:31:31;7.60;99.90
53802;DHT22;39709;53.334;6.534;2022-11-18T09:34:00;7.80;99.90
53802;DHT22;39709;53.334;6.534;2022-11-18T09:36:26;7.20;99.90
53802;DHT22;39709;53.334;6.534;2022-11-18T09:38:52;7.30;99.90
53802;DHT22;39709;53.334;6.534;2022-11-18T09:41:39;7.50;99.90
53802;DHT22;39709;53.334;6.534;2022-11-18T09:49:40;7.30;99.90
53802;DHT22;39709;53.334;6.534;2022-11-18T09:52:17;7.10;99.90
53802;DHT22;39709;53.334;6.534;2022-11-18T09:54:43;7.00;99.90
53802;DHT22;39709;53.334;6.534;2022-11-18T09:59:43;7.40;99.90
53802;DHT22;39709;53.334;6.534;2022-11-18T10:04:37;7.60;99.90
53802;DHT22;39709;53.334;6.534;2022-11-18T10:07:12;7.40;99.90
53802;DHT22;39709;53.334;6.534;2022-11-18T10:09:40;7.20;99.90
53802;DHT22;39709;53.334;6.534;2022-11-18T10:12:34;7.80;99.90
53802;DHT22;39709;53.334;6.534;2022-11-18T10:15:32;7.20;99.90
53802;DHT22;39709;53.334;6.534;2022-11-18T10:18:05;7.20;99.90
53802;DHT22;39709;53.334;6.534;2022-11-18T10:23:53;6.80;99.90
53802;DHT22;39709;53.334;6.534;2022-11-18T10:26:38;6.80;99.90
53802;DHT22;39709;53.334;6.534;2022-11-18T10:29:05;6.80;99.90
53802;DHT22;39709;53.334;6.534;2022-11-18T10:32:06;6.90;99.90
53802;DHT22;39709;53.334;6.534;2022-11-18T10:34:34;6.60;99.90
53802;DHT22;39709;53.334;6.534;2022-11-18T10:37:32;6.70;99.90
53802;DHT22;39709;53.334;6.534;2022-11-18T10:39:59;6.70;99.90
53802;DHT22;39709;53.334;6.534;2022-11-18T10:42:40;6.80;99.90
53802;DHT22;39709;53.334;6.534;2022-11-18T10:45:27;7.00;99.90
53802;DHT22;39709;53.334;6.534;2022-11-18T10:50:34;7.30;99.90
53802;DHT22;39709;53.334;6.534;2022-11-18T10:53:00;7.40;99.90
53802;DHT22;39709;53.334;6.534;2022-11-18T10:55:27;7.50;99.90
53802;DHT22;39709;53.334;6.534;2022-11-18T10:58:06;7.60;99.90
53802;DHT22;39709;53.334;6.534;2022-11-18T11:00:47;7.40;99.90
53802;DHT22;39709;53.334;6.534;2022-11-18T11:03:27;7.40;99.90
53802;DHT22;39709;53.334;6.534;2022-11-18T11:11:29;7.20;99.90
53802;DHT22;39709;53.334;6.534;2022-11-18T11:14:30;7.20;99.90
53802;DHT22;39709;53.334;6.534;2022-11-18T11:17:03;7.30;99.90
53802;DHT22;39709;53.334;6.534;2022-11-18T11:19:54;7.20;99.90
53802;DHT22;39709;53.334;6.534;2022-11-18T11:22:23;7.20;99.90
53802;DHT22;39709;53.334;6.534;2022-11-18T11:24:49;7.30;99.90
53802;DHT22;39709;53.334;6.534;2022-11-18T11:27:26;7.20;99.90
53802;DHT22;39709;53.334;6.534;2022-11-18T11:30:21;7.60;99.90
53802;DHT22;39709;53.334;6.534;2022-11-18T11:33:15;7.40;99.90
53802;DHT22;39709;53.334;6.534;2022-11-18T11:35:58;7.20;99.90
53802;DHT22;39709;53.334;6.534;2022-11-18T11:38:31;7.50;99.90
53802;DHT22;39709;53.334;6.534;2022-11-18T11:41:09;7.60;99.90
53802;DHT22;39709;53.334;6.534;2022-11-18T11:52:18;7.10;99.90
53802;DHT22;39709;53.334;6.534;2022-11-18T11:54:55;7.00;99.90
53802;DHT22;39709;53.334;6.534;2022-11-18T11:57:57;7.00;99.90
53802;DHT22;39709;53.334;6.534;2022-11-18T12:00:25;6.90;99.90
53802;DHT22;39709;53.334;6.534;2022-11-18T12:03:37;7.30;99.90
53802;DHT22;39709;53.334;6.534;2022-11-18T12:06:09;7.30;99.90
53802;DHT22;39709;53.334;6.534;2022-11-18T12:08:36;7.00;99.90
53802;DHT22;39709;53.334;6.534;2022-11-18T12:11:04;6.60;99.90
53802;DHT22;39709;53.334;6.534;2022-11-18T12:13:53;6.80;99.90
53802;DHT22;39709;53.334;6.534;2022-11-18T12:16:23;7.20;99.90
53802;DHT22;39709;53.334;6.534;2022-11-18T12:24:24;7.00;99.90
53802;DHT22;39709;53.334;6.534;2022-11-18T12:26:56;7.30;99.90
53802;DHT22;39709;53.334;6.534;2022-11-18T12:29:24;7.40;99.90
53802;DHT22;39709;53.334;6.534;2022-11-18T12:31:56;7.10;99.90
53802;DHT22;39709;53.334;6.534;2022-11-18T12:36:52;7.00;99.90
53802;DHT22;39709;53.334;6.534;2022-11-18T12:44:37;6.90;99.90
53802;DHT22;39709;53.334;6.534;2022-11-18T12:50:14;6.70;99.90
53802;DHT22;39709;53.334;6.534;2022-11-18T12:55:24;6.90;99.90
53802;DHT22;39709;53.334;6.534;2022-11-18T12:57:51;6.80;99.90
53802;DHT22;39709;53.334;6.534;2022-11-18T13:02:57;7.10;99.90
53802;DHT22;39709;53.334;6.534;2022-11-18T13:05:31;7.20;99.90
53802;DHT22;39709;53.334;6.534;2022-11-18T13:08:03;6.90;99.90
53802;DHT22;39709;53.334;6.534;2022-11-18T13:13:30;6.90;99.90
53802;DHT22;39709;53.334;6.534;2022-11-18T13:16:01;6.90;99.90
53802;DHT22;39709;53.334;6.534;2022-11-18T13:18:52;6.80;99.90
53802;DHT22;39709;53.334;6.534;2022-11-18T13:21:24;6.70;99.90
53802;DHT22;39709;53.334;6.534;2022-11-18T13:24:16;7.10;99.90
53802;DHT22;39709;53.334;6.534;2022-11-18T13:26:44;6.80;99.90
53802;DHT22;39709;53.334;6.534;2022-11-18T13:29:57;6.90;99.90
53802;DHT22;39709;53.334;6.534;2022-11-18T13:32:27;7.10;99.90
53802;DHT22;39709;53.334;6.534;2022-11-18T13:34:58;6.80;99.90
53802;DHT22;39709;53.334;6.534;2022-11-18T13:37:31;6.80;99.90
53802;DHT22;39709;53.334;6.534;2022-11-18T13:39:58;7.20;99.90
53802;DHT22;39709;53.334;6.534;2022-11-18T13:42:26;7.00;99.90
53802;DHT22;39709;53.334;6.534;2022-11-18T13:44:57;7.10;99.90
53802;DHT22;39709;53.334;6.534;2022-11-18T13:47:38;6.60;99.90
53802;DHT22;39709;53.334;6.534;2022-11-18T13:52:42;6.90;99.90
53802;DHT22;39709;53.334;6.534;2022-11-18T13:55:24;6.30;99.90
53802;DHT22;39709;53.334;6.534;2022-11-18T13:58:19;6.70;99.90
53802;DHT22;39709;53.334;6.534;2022-11-18T14:01:32;6.70;99.90
53802;DHT22;39709;53.334;6.534;2022-11-18T14:03:53;6.50;99.90
53802;DHT22;39709;53.334;6.534;2022-11-18T14:09:24;6.20;99.90
53802;DHT22;39709;53.334;6.534;2022-11-18T14:12:21;6.30;99.90
53802;DHT22;39709;53.334;6.534;2022-11-18T14:14:48;6.40;99.90
53802;DHT22;39709;53.334;6.534;2022-11-18T14:17:23;6.20;99.90
53802;DHT22;39709;53.334;6.534;2022-11-18T14:19:54;6.40;99.90
53802;DHT22;39709;53.334;6.534;2022-11-18T14:22:20;6.20;99.90
53802;DHT22;39709;53.334;6.534;2022-11-18T14:27:52;6.20;99.90
53802;DHT22;39709;53.334;6.534;2022-11-18T14:30:29;6.50;99.90
53802;DHT22;39709;53.334;6.534;2022-11-18T14:33:25;6.40;99.90
53802;DHT22;39709;53.334;6.534;2022-11-18T14:36:16;5.80;99.90
53802;DHT22;39709;53.334;6.534;2022-11-18T14:38:45;6.00;99.90
53802;DHT22;39709;53.334;6.534;2022-11-18T14:41:13;7.20;99.90
53802;DHT22;39709;53.334;6.534;2022-11-18T14:43:39;6.50;99.90
53802;DHT22;39709;53.334;6.534;2022-11-18T14:46:13;6.70;99.90
53802;DHT22;39709;53.334;6.534;2022-11-18T14:48:40;6.70;99.90
53802;DHT22;39709;53.334;6.534;2022-11-18T14:51:05;6.60;99.90
53802;DHT22;39709;53.334;6.534;2022-11-18T14:53:31;6.70;99.90
53802;DHT22;39709;53.334;6.534;2022-11-18T14:55:58;6.80;99.90
53802;DHT22;39709;53.334;6.534;2022-11-18T14:58:24;6.80;99.90
53802;DHT22;39709;53.334;6.534;2022-11-18T15:00:50;6.30;99.90
53802;DHT22;39709;53.334;6.534;2022-11-18T15:03:16;6.60;99.90
53802;DHT22;39709;53.334;6.534;2022-11-18T15:05:42;6.50;99.90
53802;DHT22;39709;53.334;6.534;2022-11-18T15:08:08;6.70;99.90
53802;DHT22;39709;53.334;6.534;2022-11-18T15:10:34;6.60;99.90
53802;DHT22;39709;53.334;6.534;2022-11-18T15:13:00;6.30;99.90
53802;DHT22;39709;53.334;6.534;2022-11-18T15:15:26;6.60;99.90
53802;DHT22;39709;53.334;6.534;2022-11-18T15:17:52;6.30;99.90
53802;DHT22;39709;53.334;6.534;2022-11-18T15:20:20;6.40;99.90
53802;DHT22;39709;53.334;6.534;2022-11-18T15:22:46;6.70;99.90
53802;DHT22;39709;53.334;6.534;2022-11-18T15:25:12;6.30;99.90
53802;DHT22;39709;53.334;6.534;2022-11-18T15:27:37;6.10;99.90
53802;DHT22;39709;53.334;6.534;2022-11-18T15:30:04;6.40;99.90
53802;DHT22;39709;53.334;6.534;2022-11-18T15:32:30;6.60;99.90
53802;DHT22;39709;53.334;6.534;2022-11-18T15:34:56;6.60;99.90
53802;DHT22;39709;53.334;6.534;2022-11-18T15:37:22;6.70;99.90
53802;DHT22;39709;53.334;6.534;2022-11-18T15:39:47;6.60;99.90
53802;DHT22;39709;53.334;6.534;2022-11-18T15:42:19;6.80;99.90
53802;DHT22;39709;53.334;6.534;2022-11-18T15:44:45;6.50;99.90
53802;DHT22;39709;53.334;6.534;2022-11-18T15:47:10;6.40;99.90
53802;DHT22;39709;53.334;6.534;2022-11-18T15:49:36;6.60;99.90
53802;DHT22;39709;53.334;6.534;2022-11-18T15:52:08;6.80;99.90
53802;DHT22;39709;53.334;6.534;2022-11-18T15:54:35;7.00;99.90
53802;DHT22;39709;53.334;6.534;2022-11-18T15:57:01;7.00;99.90
53802;DHT22;39709;53.334;6.534;2022-11-18T15:59:27;6.60;99.90
53802;DHT22;39709;53.334;6.534;2022-11-18T16:01:54;6.70;99.90
53802;DHT22;39709;53.334;6.534;2022-11-18T16:04:20;6.90;99.90
53802;DHT22;39709;53.334;6.534;2022-11-18T16:06:46;6.80;99.90
53802;DHT22;39709;53.334;6.534;2022-11-18T16:09:13;6.50;99.90
53802;DHT22;39709;53.334;6.534;2022-11-18T16:11:39;6.90;99.90
53802;DHT22;39709;53.334;6.534;2022-11-18T16:14:24;6.70;99.90
53802;DHT22;39709;53.334;6.534;2022-11-18T16:16:52;6.70;99.90
53802;DHT22;39709;53.334;6.534;2022-11-18T16:19:19;6.90;99.90
53802;DHT22;39709;53.334;6.534;2022-11-18T16:21:48;6.90;99.90
53802;DHT22;39709;53.334;6.534;2022-11-18T16:24:19;6.60;99.90
53802;DHT22;39709;53.334;6.534;2022-11-18T16:26:45;7.00;99.90
53802;DHT22;39709;53.334;6.534;2022-11-18T16:29:12;6.70;99.90
53802;DHT22;39709;53.334;6.534;2022-11-18T16:31:40;6.80;99.90
53802;DHT22;39709;53.334;6.534;2022-11-18T16:34:26;6.90;99.90
53802;DHT22;39709;53.334;6.534;2022-11-18T16:36:56;7.20;99.90
53802;DHT22;39709;53.334;6.534;2022-11-18T16:39:27;7.10;99.90
53802;DHT22;39709;53.334;6.534;2022-11-18T16:41:55;7.20;99.90
53802;DHT22;39709;53.334;6.534;2022-11-18T16:44:21;7.20;99.90
53802;DHT22;39709;53.334;6.534;2022-11-18T16:46:55;7.20;99.90
53802;DHT22;39709;53.334;6.534;2022-11-18T16:49:24;7.00;99.90
53802;DHT22;39709;53.334;6.534;2022-11-18T16:51:52;7.20;99.90
53802;DHT22;39709;53.334;6.534;2022-11-18T16:54:24;7.10;99.90
53802;DHT22;39709;53.334;6.534;2022-11-18T16:56:50;7.50;99.90
53802;DHT22;39709;53.334;6.534;2022-11-18T16:59:18;7.20;99.90
53802;DHT22;39709;53.334;6.534;2022-11-18T17:01:46;7.30;99.90
53802;DHT22;39709;53.334;6.534;2022-11-18T17:04:12;7.20;99.90
53802;DHT22;39709;53.334;6.534;2022-11-18T17:06:38;7.40;99.90
53802;DHT22;39709;53.334;6.534;2022-11-18T17:09:05;7.00;99.90
53802;DHT22;39709;53.334;6.534;2022-11-18T17:11:30;7.20;99.90
53802;DHT22;39709;53.334;6.534;2022-11-18T17:13:56;6.80;99.90
53802;DHT22;39709;53.334;6.534;2022-11-18T17:16:22;7.30;99.90
53802;DHT22;39709;53.334;6.534;2022-11-18T17:18:57;7.20;99.90
53802;DHT22;39709;53.334;6.534;2022-11-18T17:21:23;7.30;99.90
53802;DHT22;39709;53.334;6.534;2022-11-18T17:23:49;7.60;99.90
53802;DHT22;39709;53.334;6.534;2022-11-18T17:26:18;7.50;99.90
53802;DHT22;39709;53.334;6.534;2022-11-18T17:28:44;7.40;99.90
53802;DHT22;39709;53.334;6.534;2022-11-18T17:31:12;7.40;99.90
53802;DHT22;39709;53.334;6.534;2022-11-18T17:33:39;7.30;99.90
53802;DHT22;39709;53.334;6.534;2022-11-18T17:36:07;7.30;99.90